Time;durP1;ratioP1;P1;durP2;ratioP2;P2;SDS_P1;SDS_P2;PMS_P1;PMS_P2;Temp;Humidity;BMP_temperature;BMP_pressure;BME280_temperature;BME280_humidity;BME280_pressure;Samples;Min_cycle;Max_cycle;Signal;HPM_P1;HPM_P2
2024/03/04 00:00:20;;;;;;;6.05;5.55;;;;;;;7.10;100.00;91739.28;2107549;28;20023;-82
2024/03/04 00:01:26;;;;;;;5.65;5.20;;;;;;;7.09;100.00;91748.44;2098850;28;20028;-81
2024/03/04 00:02:27;;;;;;;6.32;5.93;;;;;;;7.09;100.00;91732.50;2106613;28;20535;-82
2024/03/04 00:03:28;;;;;;;5.68;5.28;;;;;;;7.08;100.00;91745.03;2095829;28;20048;-81
2024/03/04 00:04:29;;;;;;;5.72;5.20;;;;;;;7.02;100.00;91744.84;2106532;28;20122;-82
2024/03/04 00:05:30;;;;;;;6.82;5.80;;;;;;;7.02;100.00;91752.81;2103443;28;20500;-81
2024/03/04 00:06:31;;;;;;;5.80;5.30;;;;;;;7.14;100.00;91751.31;2110015;28;20024;-81
2024/03/04 00:07:32;;;;;;;5.97;5.50;;;;;;;7.17;100.00;91760.34;2118907;27;20038;-83
2024/03/04 00:08:33;;;;;;;5.38;4.97;;;;;;;7.26;100.00;91749.81;2122806;27;20038;-82
2024/03/04 00:09:35;;;;;;;6.25;5.75;;;;;;;7.18;100.00;91754.59;2124184;27;20047;-82
2024/03/04 00:10:36;;;;;;;5.57;5.18;;;;;;;7.13;100.00;91759.72;2110932;28;20036;-81
2024/03/04 00:11:38;;;;;;;6.13;5.68;;;;;;;7.17;100.00;91749.72;2093337;28;20029;-81
2024/03/04 00:12:39;;;;;;;5.78;5.38;;;;;;;7.16;100.00;91753.56;2098384;28;20029;-81
2024/03/04 00:13:40;;;;;;;5.68;5.28;;;;;;;7.04;100.00;91753.13;2096220;28;20591;-81
2024/03/04 00:14:41;;;;;;;5.60;5.10;;;;;;;7.16;100.00;91756.22;2098093;28;20032;-82
2024/03/04 00:15:42;;;;;;;5.57;5.15;;;;;;;7.12;100.00;91763.53;2097337;28;20029;-82
2024/03/04 00:16:43;;;;;;;5.60;5.20;;;;;;;7.17;100.00;91765.66;2106330;28;20435;-79
2024/03/04 00:17:44;;;;;;;5.78;5.38;;;;;;;7.25;100.00;91761.63;2114751;28;20100;-82
2024/03/04 00:18:45;;;;;;;5.35;4.95;;;;;;;7.16;100.00;91764.91;2106418;28;20024;-81
2024/03/04 00:19:46;;;;;;;5.40;5.10;;;;;;;7.09;100.00;91767.03;2106320;28;20028;-80
2024/03/04 00:20:47;;;;;;;5.28;4.97;;;;;;;7.16;100.00;91764.19;2098036;28;20029;-80
2024/03/04 00:21:48;;;;;;;5.50;5.10;;;;;;;7.28;100.00;91764.13;2105596;28;20028;-81
2024/03/04 00:22:49;;;;;;;6.15;5.65;;;;;;;7.23;100.00;91774.56;2114754;28;20071;-81
2024/03/04 00:23:51;;;;;;;5.50;5.00;;;;;;;7.14;100.00;91767.25;2114923;27;20016;-80
2024/03/04 00:24:52;;;;;;;5.57;5.15;;;;;;;7.22;100.00;91770.44;2123906;27;20031;-82
2024/03/04 00:25:53;;;;;;;5.57;5.15;;;;;;;7.16;100.00;91780.88;2106611;28;20895;-80
2024/03/04 00:26:54;;;;;;;5.65;5.25;;;;;;;7.20;100.00;91772.75;2099737;28;20075;-82
2024/03/04 00:27:55;;;;;;;5.70;5.30;;;;;;;7.07;100.00;91784.16;2096429;28;20024;-81
2024/03/04 00:28:56;;;;;;;5.40;5.00;;;;;;;7.32;100.00;91791.34;2082952;28;20474;-81
2024/03/04 00:29:57;;;;;;;5.10;4.70;;;;;;;7.45;100.00;91779.97;2089701;28;20112;-81
2024/03/04 00:30:58;;;;;;;5.45;5.05;;;;;;;7.30;100.00;91790.31;2091715;28;20025;-81
2024/03/04 00:31:59;;;;;;;5.40;5.00;;;;;;;7.31;100.00;91789.13;2096984;28;20370;-80
2024/03/04 00:33:00;;;;;;;5.55;5.15;;;;;;;7.26;100.00;91782.44;2106276;28;20024;-81
2024/03/04 00:34:01;;;;;;;5.30;4.80;;;;;;;7.29;100.00;91784.25;2098820;28;20028;-81
2024/03/04 00:35:05;;;;;;;5.13;4.82;;;;;;;7.16;100.00;91790.75;2101696;28;20024;-81
2024/03/04 00:36:06;;;;;;;5.20;4.80;;;;;;;7.27;100.00;91783.19;2106791;28;20130;-80
2024/03/04 00:37:14;;;;;;;4.90;4.60;;;;;;;7.41;100.00;91784.66;2103375;28;20031;-81
2024/03/04 00:38:15;;;;;;;5.13;4.80;;;;;;;7.40;100.00;91783.16;2105351;28;20123;-81
2024/03/04 00:39:17;;;;;;;5.20;4.80;;;;;;;7.29;100.00;91781.59;2054299;28;20033;-80
2024/03/04 00:40:18;;;;;;;4.97;4.65;;;;;;;7.13;100.00;91788.94;2052244;27;20542;-81
2024/03/04 00:41:26;;;;;;;5.32;4.93;;;;;;;7.05;100.00;91791.78;2047826;27;20435;-81
2024/03/04 00:42:27;;;;;;;4.97;4.68;;;;;;;6.96;100.00;91788.28;2060426;27;20042;-81
2024/03/04 00:43:28;;;;;;;5.30;4.90;;;;;;;6.96;100.00;91786.38;2049538;28;20437;-80
2024/03/04 00:44:29;;;;;;;4.80;4.50;;;;;;;7.02;100.00;91790.00;2049523;28;20079;-81
2024/03/04 00:45:31;;;;;;;5.47;5.07;;;;;;;6.97;100.00;91795.09;2072592;27;20027;-81
2024/03/04 00:46:32;;;;;;;5.32;4.93;;;;;;;7.00;100.00;91797.66;2066078;27;20034;-82
2024/03/04 00:47:33;;;;;;;4.90;4.40;;;;;;;7.14;100.00;91790.41;2074042;28;20028;-81
2024/03/04 00:48:34;;;;;;;5.00;4.35;;;;;;;7.11;100.00;91786.69;2100383;28;20474;-82
2024/03/04 00:49:35;;;;;;;4.50;4.20;;;;;;;7.24;100.00;91792.00;2044318;28;20150;-81
2024/03/04 00:50:36;;;;;;;4.50;4.20;;;;;;;7.28;100.00;91796.03;2034506;28;21432;-80
2024/03/04 00:51:40;;;;;;;4.50;4.20;;;;;;;7.15;100.00;91789.97;2018307;28;20595;-81
2024/03/04 00:52:41;;;;;;;4.65;4.35;;;;;;;7.01;100.00;91793.06;2037232;28;20389;-81
2024/03/04 00:53:46;;;;;;;4.15;3.90;;;;;;;6.91;100.00;91796.78;2036142;28;20043;-81
2024/03/04 00:54:47;;;;;;;4.38;4.07;;;;;;;6.80;100.00;91794.44;2039998;28;20032;-80
2024/03/04 00:55:49;;;;;;;4.70;4.40;;;;;;;7.04;100.00;91794.88;2038710;28;20465;-81
2024/03/04 00:56:50;;;;;;;4.43;4.13;;;;;;;7.08;100.00;91790.22;2034275;28;20163;-82
2024/03/04 00:57:51;;;;;;;4.20;3.90;;;;;;;7.04;100.00;91792.22;2049218;28;20025;-80
2024/03/04 00:58:52;;;;;;;4.40;4.10;;;;;;;6.95;100.00;91786.81;2061864;28;20028;-80
2024/03/04 00:59:53;;;;;;;4.55;4.25;;;;;;;6.88;100.00;91798.38;2075064;28;20150;-81
2024/03/04 01:00:54;;;;;;;4.30;4.00;;;;;;;6.73;100.00;91807.94;2072326;28;20043;-80
2024/03/04 01:01:54;;;;;;;4.50;4.10;;;;;;;6.72;100.00;91803.81;2074459;28;20040;-80
2024/03/04 01:02:55;;;;;;;4.55;4.20;;;;;;;6.69;100.00;91801.97;2092602;28;20020;-82
2024/03/04 01:03:56;;;;;;;4.60;4.30;;;;;;;6.77;100.00;91800.63;2097759;28;20119;-81
2024/03/04 01:04:57;;;;;;;4.50;4.20;;;;;;;6.77;100.00;91796.03;2114524;28;20027;-81
2024/03/04 01:05:59;;;;;;;4.40;4.10;;;;;;;6.79;100.00;91799.00;2123634;27;20019;-81
2024/03/04 01:07:00;;;;;;;4.10;3.80;;;;;;;6.90;100.00;91811.25;2105080;28;20036;-80
2024/03/04 01:08:01;;;;;;;4.13;3.83;;;;;;;6.90;100.00;91812.00;2105971;28;20043;-82
2024/03/04 01:09:03;;;;;;;4.50;4.20;;;;;;;6.89;100.00;91812.41;2114456;28;20020;-81
2024/03/04 01:10:05;;;;;;;4.55;4.25;;;;;;;6.89;100.00;91815.81;2114718;28;20015;-83
2024/03/04 01:11:07;;;;;;;4.40;4.10;;;;;;;6.88;100.00;91819.63;2105960;28;20039;-81
2024/03/04 01:12:12;;;;;;;4.30;4.00;;;;;;;6.99;100.00;91827.31;2100110;28;20020;-80
2024/03/04 01:13:14;;;;;;;4.70;4.40;;;;;;;6.94;100.00;91822.53;2101442;28;20044;-81
2024/03/04 01:14:15;;;;;;;4.53;4.22;;;;;;;6.86;100.00;91821.22;2098069;28;20531;-81
2024/03/04 01:15:22;;;;;;;3.92;3.72;;;;;;;6.98;100.00;91823.91;2101594;28;20035;-81
2024/03/04 01:16:24;;;;;;;4.32;4.00;;;;;;;6.81;100.00;91823.25;2099218;28;20025;-82
2024/03/04 01:17:25;;;;;;;4.45;4.15;;;;;;;6.92;100.00;91827.50;2097765;28;20469;-82
2024/03/04 01:18:26;;;;;;;4.20;3.90;;;;;;;7.06;100.00;91819.84;2096458;28;20021;-81
2024/03/04 01:19:28;;;;;;;4.38;4.07;;;;;;;6.95;100.00;91824.00;2102681;28;20066;-81
2024/03/04 01:20:29;;;;;;;4.03;3.72;;;;;;;6.96;100.00;91825.47;2114408;27;20070;-81
2024/03/04 01:21:30;;;;;;;4.40;4.07;;;;;;;6.90;100.00;91827.19;2106011;28;20433;-81
2024/03/04 01:22:31;;;;;;;4.53;4.22;;;;;;;7.04;100.00;91827.50;2097575;28;20044;-81
2024/03/04 01:23:33;;;;;;;4.57;4.20;;;;;;;6.94;100.00;91830.50;2097608;28;20031;-82
2024/03/04 01:24:34;;;;;;;4.15;3.85;;;;;;;7.10;100.00;91825.06;2097451;28;20078;-81
2024/03/04 01:25:35;;;;;;;4.70;4.30;;;;;;;7.21;100.00;91827.41;2109825;28;20027;-82
2024/03/04 01:26:36;;;;;;;4.63;4.22;;;;;;;7.03;100.00;91823.38;2105506;28;20058;-82
2024/03/04 01:27:37;;;;;;;4.57;4.28;;;;;;;6.91;100.00;91826.75;2101453;28;20044;-81
2024/03/04 01:28:38;;;;;;;4.47;4.18;;;;;;;6.85;100.00;91828.47;2103845;28;20036;-82
2024/03/04 01:29:42;;;;;;;4.50;4.20;;;;;;;6.74;100.00;91830.66;2114324;28;20042;-82
2024/03/04 01:30:43;;;;;;;4.30;4.00;;;;;;;6.83;100.00;91828.13;2113101;28;20107;-81
2024/03/04 01:31:44;;;;;;;5.18;4.68;;;;;;;6.87;100.00;91828.78;2108564;28;20465;-80
2024/03/04 01:32:45;;;;;;;4.28;3.97;;;;;;;6.83;100.00;91838.75;2119208;27;20027;-82
2024/03/04 01:33:47;;;;;;;4.85;4.45;;;;;;;6.82;100.00;91839.91;2118171;27;20638;-80
2024/03/04 01:34:48;;;;;;;4.85;4.55;;;;;;;6.87;100.00;91834.06;2114182;28;20049;-82
2024/03/04 01:35:55;;;;;;;4.72;4.32;;;;;;;6.96;100.00;91839.50;2102671;28;20038;-83
2024/03/04 01:36:56;;;;;;;4.30;4.00;;;;;;;6.96;100.00;91836.09;2075927;27;20035;-82
2024/03/04 01:37:58;;;;;;;4.38;4.07;;;;;;;7.03;100.00;91841.22;2059889;28;20040;-81
2024/03/04 01:38:59;;;;;;;4.70;4.30;;;;;;;6.96;100.00;91841.41;2062194;28;20086;-81
2024/03/04 01:40:00;;;;;;;4.47;4.18;;;;;;;6.96;100.00;91839.50;2045891;28;20105;-80
2024/03/04 01:41:01;;;;;;;4.50;4.10;;;;;;;6.79;100.00;91848.72;2075635;28;20108;-81
2024/03/04 01:42:02;;;;;;;5.00;4.60;;;;;;;6.77;100.00;91848.41;1966186;28;20740;-82
2024/03/04 01:43:03;;;;;;;3.95;3.65;;;;;;;6.84;100.00;91850.84;2006091;28;21108;-82
2024/03/04 01:44:04;;;;;;;4.70;4.38;;;;;;;6.80;100.00;91855.50;1994884;27;21625;-80
2024/03/04 01:45:15;;;;;;;4.30;4.00;;;;;;;6.91;100.00;91848.00;1934869;28;21123;-80
2024/03/04 01:46:17;;;;;;;4.50;4.20;;;;;;;6.73;100.00;91853.81;1957310;28;21429;-81
2024/03/04 01:47:20;;;;;;;5.20;4.70;;;;;;;6.78;100.00;91858.59;1916723;28;21743;-81
2024/03/04 01:48:22;;;;;;;4.47;4.10;;;;;;;6.72;100.00;91856.91;1933385;28;21253;-80
2024/03/04 01:49:24;;;;;;;4.63;4.22;;;;;;;6.46;100.00;91854.19;1951309;28;20990;-80
2024/03/04 01:50:27;;;;;;;5.05;4.65;;;;;;;6.41;100.00;91856.56;1913356;28;22221;-80
2024/03/04 01:51:30;;;;;;;4.60;4.28;;;;;;;6.42;100.00;91858.09;1942800;28;20298;-80
2024/03/04 01:52:31;;;;;;;5.13;4.75;;;;;;;6.47;100.00;91855.66;1948154;28;20763;-80
2024/03/04 01:53:32;;;;;;;4.63;4.32;;;;;;;6.57;100.00;91862.59;1918105;28;21696;-82
2024/03/04 01:54:35;;;;;;;4.80;4.45;;;;;;;6.68;100.00;91859.66;1943360;28;20040;-81
2024/03/04 01:55:43;;;;;;;4.82;4.43;;;;;;;6.59;100.00;91856.13;1985337;28;21981;-80
2024/03/04 01:56:43;;;;;;;4.43;4.13;;;;;;;6.65;100.00;91857.09;1923635;27;22110;-80
2024/03/04 01:57:45;;;;;;;4.40;4.05;;;;;;;6.63;100.00;91852.22;1911849;28;21694;-80
2024/03/04 01:58:47;;;;;;;4.57;4.28;;;;;;;6.60;100.00;91849.66;1887057;28;22829;-81
2024/03/04 01:59:51;;;;;;;5.00;4.60;;;;;;;6.79;100.00;91857.44;1914989;28;21732;-80
2024/03/04 02:00:52;;;;;;;4.25;3.92;;;;;;;6.55;100.00;91849.00;1968892;28;20038;-82
2024/03/04 02:01:54;;;;;;;4.57;4.28;;;;;;;6.51;100.00;91853.66;1944071;28;20952;-80
2024/03/04 02:02:56;;;;;;;4.63;4.30;;;;;;;6.56;100.00;91853.13;1956834;27;21794;-80
2024/03/04 02:03:57;;;;;;;4.30;4.00;;;;;;;6.65;100.00;91852.53;1959719;28;20431;-81
2024/03/04 02:04:58;;;;;;;4.50;4.20;;;;;;;6.58;100.00;91852.72;1956575;28;21484;-82
2024/03/04 02:06:00;;;;;;;6.47;4.20;;;;;;;6.67;100.00;91846.78;1961644;28;22233;-80
2024/03/04 02:07:02;;;;;;;4.57;4.18;;;;;;;6.65;100.00;91847.22;1965989;28;20192;-81
2024/03/04 02:08:03;;;;;;;4.25;3.78;;;;;;;6.60;100.00;91847.00;1944703;28;20691;-81
2024/03/04 02:09:04;;;;;;;4.30;4.00;;;;;;;6.55;100.00;91850.91;1966116;28;20036;-80
2024/03/04 02:10:06;;;;;;;4.72;4.43;;;;;;;6.42;100.00;91842.91;1964423;28;20032;-80
2024/03/04 02:11:07;;;;;;;4.63;4.28;;;;;;;6.50;100.00;91843.47;1977634;28;20055;-81
2024/03/04 02:12:09;;;;;;;4.47;4.18;;;;;;;6.49;100.00;91849.91;1985809;27;20134;-80
2024/03/04 02:13:10;;;;;;;4.38;4.07;;;;;;;6.56;100.00;91847.81;1962005;28;20072;-80
2024/03/04 02:14:11;;;;;;;4.60;4.30;;;;;;;6.49;100.00;91841.97;1963597;28;20182;-80
2024/03/04 02:15:12;;;;;;;4.60;4.30;;;;;;;6.53;100.00;91843.34;1929558;28;20028;-80
2024/03/04 02:16:13;;;;;;;4.72;4.32;;;;;;;6.37;100.00;91845.34;1963689;28;20028;-80
2024/03/04 02:17:14;;;;;;;5.10;4.70;;;;;;;6.31;100.00;91847.75;1964038;28;20946;-83
2024/03/04 02:18:17;;;;;;;4.40;4.10;;;;;;;6.37;100.00;91846.09;1974614;28;20016;-82
2024/03/04 02:19:20;;;;;;;4.88;4.45;;;;;;;6.42;100.00;91850.13;2031941;28;20077;-81
2024/03/04 02:20:24;;;;;;;4.10;3.80;;;;;;;6.59;100.00;91858.78;2036086;28;20695;-83
2024/03/04 02:21:30;;;;;;;4.82;4.43;;;;;;;6.60;100.00;91854.97;2068941;28;20179;-81
2024/03/04 02:22:32;;;;;;;4.43;4.13;;;;;;;6.62;100.00;91861.31;2086184;28;20034;-81
2024/03/04 02:23:32;;;;;;;5.57;5.18;;;;;;;6.53;100.00;91867.25;2097111;28;20012;-82
2024/03/04 02:24:34;;;;;;;4.85;4.55;;;;;;;6.55;100.00;91870.22;2053489;28;20032;-80
2024/03/04 02:26:58;;;;;;;;;;;;;;;5.39;100.00;91870.00;2059389;27;20901;-81
2024/03/04 02:28:00;;;;;;;4.40;4.10;;;;;;;5.46;100.00;91869.88;2056213;28;19927;-82
2024/03/04 02:29:01;;;;;;;5.35;4.95;;;;;;;5.38;100.00;91881.03;2046370;28;22742;-81
2024/03/04 02:30:04;;;;;;;5.00;4.60;;;;;;;5.48;100.00;91878.13;2055458;28;20042;-81
2024/03/04 02:31:06;;;;;;;5.20;4.50;;;;;;;5.55;100.00;91885.19;2061508;27;20729;-82
2024/03/04 02:32:07;;;;;;;4.70;4.30;;;;;;;5.65;100.00;91872.84;2074968;28;20490;-81
2024/03/04 02:33:08;;;;;;;4.90;4.57;;;;;;;5.69;100.00;91881.47;2075745;27;20521;-81
2024/03/04 02:34:11;;;;;;;4.90;4.50;;;;;;;5.62;100.00;91881.63;2091173;28;20440;-81
2024/03/04 02:35:12;;;;;;;4.70;4.30;;;;;;;5.61;100.00;91880.88;2087294;28;20131;-81
2024/03/04 02:36:14;;;;;;;4.45;4.15;;;;;;;5.62;100.00;91879.75;2093521;28;20032;-81
2024/03/04 02:37:15;;;;;;;5.30;4.80;;;;;;;5.58;100.00;91883.63;2118981;27;20479;-83
2024/03/04 02:38:17;;;;;;;5.15;4.75;;;;;;;5.54;100.00;91881.81;2107412;28;20090;-83
2024/03/04 02:39:18;;;;;;;4.75;4.35;;;;;;;5.54;100.00;91883.72;2093015;28;20029;-83
2024/03/04 02:40:19;;;;;;;5.03;4.57;;;;;;;5.54;100.00;91887.09;2104029;28;20031;-83
2024/03/04 02:41:21;;;;;;;5.13;4.72;;;;;;;5.55;100.00;91880.63;2112281;28;20058;-80
2024/03/04 02:42:22;;;;;;;5.00;4.60;;;;;;;5.59;100.00;91888.50;2116806;28;20034;-83
2024/03/04 02:43:24;;;;;;;5.30;4.80;;;;;;;5.73;100.00;91892.72;2114095;28;20102;-82
2024/03/04 02:44:25;;;;;;;4.45;4.10;;;;;;;5.77;100.00;91890.75;2108284;28;20362;-82
2024/03/04 02:45:26;;;;;;;4.68;4.28;;;;;;;5.95;100.00;91895.66;2120724;27;20040;-82
2024/03/04 02:46:27;;;;;;;5.00;4.60;;;;;;;5.86;100.00;91890.16;2129918;27;20030;-81
2024/03/04 02:47:28;;;;;;;4.57;4.28;;;;;;;5.86;100.00;91893.56;2113942;28;20452;-83
2024/03/04 02:48:29;;;;;;;4.40;4.00;;;;;;;6.02;100.00;91895.50;2108903;28;20056;-81
2024/03/04 02:49:30;;;;;;;4.80;4.45;;;;;;;5.95;100.00;91898.31;2112128;28;20027;-82
2024/03/04 02:50:33;;;;;;;4.55;4.15;;;;;;;5.95;100.00;91900.94;2123466;27;20023;-81
2024/03/04 02:51:34;;;;;;;4.47;4.07;;;;;;;5.94;100.00;91902.13;2126066;27;20023;-81
2024/03/04 02:52:34;;;;;;;4.40;4.07;;;;;;;5.78;100.00;91903.56;2112292;28;20031;-81
2024/03/04 02:53:36;;;;;;;4.22;3.92;;;;;;;5.65;100.00;91899.34;2111487;28;20504;-81
2024/03/04 02:54:37;;;;;;;4.32;4.03;;;;;;;5.94;100.00;91894.16;2112298;28;20388;-82
2024/03/04 02:55:38;;;;;;;4.20;3.90;;;;;;;5.66;100.00;91898.19;2120725;28;20456;-80
2024/03/04 02:56:39;;;;;;;4.80;4.40;;;;;;;5.70;100.00;91907.56;2116098;28;20012;-82
2024/03/04 02:57:40;;;;;;;4.65;4.25;;;;;;;5.71;100.00;91903.03;2107345;28;20020;-82
2024/03/04 02:58:41;;;;;;;5.15;4.65;;;;;;;5.62;100.00;91895.63;2112997;28;20023;-82
2024/03/04 02:59:42;;;;;;;4.70;4.30;;;;;;;5.59;100.00;91901.03;2106738;28;20032;-82
2024/03/04 03:00:43;;;;;;;4.90;4.50;;;;;;;5.50;100.00;91904.97;2101024;27;20107;-81
2024/03/04 03:01:48;;;;;;;4.70;4.30;;;;;;;5.58;100.00;91910.88;2119190;27;20028;-82
2024/03/04 03:02:49;;;;;;;4.88;4.45;;;;;;;5.61;100.00;91906.63;2115552;28;20679;-81
2024/03/04 03:03:50;;;;;;;4.70;4.30;;;;;;;5.55;100.00;91901.09;2106390;28;20073;-81
2024/03/04 03:04:51;;;;;;;5.30;4.90;;;;;;;5.48;100.00;91915.22;2109530;28;20085;-82
2024/03/04 03:05:52;;;;;;;4.93;4.53;;;;;;;5.49;100.00;91914.09;2107254;28;20101;-81
2024/03/04 03:06:58;;;;;;;4.85;4.45;;;;;;;5.69;100.00;91916.66;2110595;28;20511;-82
2024/03/04 03:07:59;;;;;;;4.70;4.30;;;;;;;5.60;100.00;91921.81;2097252;28;20028;-80
2024/03/04 03:09:00;;;;;;;5.35;4.72;;;;;;;5.41;100.00;91915.41;2093782;28;20477;-82
2024/03/04 03:10:02;;;;;;;4.72;4.32;;;;;;;5.36;100.00;91917.81;2095453;28;20028;-82
2024/03/04 03:11:03;;;;;;;5.40;4.90;;;;;;;5.40;100.00;91921.88;2111258;27;20051;-81
2024/03/04 03:12:05;;;;;;;5.07;4.60;;;;;;;5.41;100.00;91923.34;2129230;27;20122;-81
2024/03/04 03:13:07;;;;;;;4.82;4.43;;;;;;;5.54;100.00;91926.84;2116855;28;20087;-81
2024/03/04 03:14:08;;;;;;;4.78;4.38;;;;;;;5.50;100.00;91931.50;2099408;28;20028;-82
2024/03/04 03:15:10;;;;;;;4.70;4.30;;;;;;;5.51;100.00;91927.66;2103796;28;20103;-82
2024/03/04 03:16:18;;;;;;;5.15;4.68;;;;;;;5.53;100.00;91940.50;2116483;28;20106;-82
2024/03/04 03:17:22;;;;;;;6.28;4.32;;;;;;;5.43;100.00;91926.34;2126852;27;20019;-82
2024/03/04 03:18:23;;;;;;;4.68;4.28;;;;;;;5.33;100.00;91939.81;2123995;27;20566;-80
2024/03/04 03:19:25;;;;;;;4.72;4.32;;;;;;;5.36;100.00;91939.00;2107868;28;20031;-81
2024/03/04 03:20:26;;;;;;;4.85;4.45;;;;;;;5.32;100.00;91935.69;2108068;28;20080;-83
2024/03/04 03:21:27;;;;;;;5.25;4.82;;;;;;;5.22;100.00;91940.78;2101697;28;20028;-82
2024/03/04 03:22:29;;;;;;;4.70;4.30;;;;;;;5.32;100.00;91948.94;2089050;28;20032;-81
2024/03/04 03:23:30;;;;;;;5.95;4.57;;;;;;;5.28;100.00;91944.44;2102366;28;20487;-82
2024/03/04 03:24:31;;;;;;;4.22;3.83;;;;;;;5.29;100.00;91940.63;2103740;28;20024;-82
2024/03/04 03:25:32;;;;;;;4.30;4.00;;;;;;;5.36;100.00;91944.31;2103860;28;20069;-80
2024/03/04 03:26:33;;;;;;;5.68;4.45;;;;;;;5.34;100.00;91938.66;2097608;28;20059;-81
2024/03/04 03:27:34;;;;;;;4.47;4.15;;;;;;;5.27;100.00;91947.50;2112135;28;20479;-82
2024/03/04 03:28:37;;;;;;;4.97;4.50;;;;;;;5.29;100.00;91942.53;2117589;28;20023;-81
2024/03/04 03:29:38;;;;;;;4.70;4.30;;;;;;;5.18;100.00;91952.59;2110227;28;20032;-80
2024/03/04 03:30:40;;;;;;;4.93;4.53;;;;;;;5.20;100.00;91948.38;2105055;28;20032;-81
2024/03/04 03:31:41;;;;;;;5.45;4.95;;;;;;;5.31;100.00;91953.47;2112019;28;20054;-82
2024/03/04 03:32:45;;;;;;;4.57;4.18;;;;;;;5.40;100.00;91960.84;2116158;27;20016;-81
2024/03/04 03:33:46;;;;;;;4.40;4.00;;;;;;;5.21;100.00;91952.53;2108122;28;20066;-81
2024/03/04 03:34:47;;;;;;;4.85;4.45;;;;;;;5.33;100.00;91956.47;2102316;28;20028;-83
2024/03/04 03:35:48;;;;;;;4.57;4.18;;;;;;;5.40;100.00;91958.19;2104063;28;20028;-81
2024/03/04 03:36:53;;;;;;;4.57;4.20;;;;;;;5.42;100.00;91963.84;2112872;28;20016;-82
2024/03/04 03:37:54;;;;;;;5.35;4.85;;;;;;;5.43;100.00;91960.78;2113204;28;20031;-82
2024/03/04 03:38:55;;;;;;;4.68;4.28;;;;;;;5.54;100.00;91960.56;2104583;28;20031;-81
2024/03/04 03:39:56;;;;;;;4.65;4.28;;;;;;;5.56;100.00;91960.88;2106553;28;20023;-82
2024/03/04 03:40:57;;;;;;;4.43;4.03;;;;;;;5.42;100.00;91966.50;2106630;28;20024;-81
2024/03/04 03:41:59;;;;;;;4.40;4.10;;;;;;;5.39;100.00;91962.75;2114970;28;20015;-82
2024/03/04 03:43:01;;;;;;;4.47;4.07;;;;;;;5.52;100.00;91963.59;2115313;28;20027;-80
2024/03/04 03:44:02;;;;;;;5.15;4.07;;;;;;;5.46;100.00;91967.91;2124219;27;20054;-81
2024/03/04 03:45:04;;;;;;;4.32;3.97;;;;;;;5.45;100.00;91961.13;2123749;27;20076;-82
2024/03/04 03:46:05;;;;;;;4.93;4.45;;;;;;;5.32;100.00;91968.22;2115499;27;20024;-82
2024/03/04 03:47:06;;;;;;;4.28;3.90;;;;;;;5.35;100.00;91969.28;2115005;28;20016;-81
2024/03/04 03:48:07;;;;;;;4.35;3.95;;;;;;;5.52;100.00;91976.13;2098215;28;20052;-81
2024/03/04 03:49:09;;;;;;;3.90;3.60;;;;;;;5.39;100.00;91976.00;2085322;28;20025;-82
2024/03/04 03:50:10;;;;;;;3.83;3.53;;;;;;;5.41;100.00;91975.63;2090345;28;20035;-82
2024/03/04 03:51:15;;;;;;;4.53;4.13;;;;;;;5.43;100.00;91975.94;2098953;28;20024;-83
2024/03/04 03:52:16;;;;;;;4.28;3.85;;;;;;;5.49;100.00;91976.97;2089804;28;20377;-83
2024/03/04 03:53:17;;;;;;;4.28;3.70;;;;;;;5.36;100.00;91976.09;2090192;28;20409;-82
2024/03/04 03:54:18;;;;;;;4.50;4.10;;;;;;;5.21;100.00;91976.38;2106451;27;20388;-82
2024/03/04 03:55:19;;;;;;;4.25;3.85;;;;;;;5.18;100.00;91981.72;2115197;28;20023;-83
2024/03/04 03:56:20;;;;;;;4.20;3.90;;;;;;;5.26;100.00;91975.13;2110000;28;20027;-81
2024/03/04 03:57:21;;;;;;;4.13;3.80;;;;;;;5.18;100.00;91973.78;2120334;27;20379;-81
2024/03/04 03:58:22;;;;;;;4.32;4.03;;;;;;;5.19;100.00;91977.94;2119122;27;20028;-82
2024/03/04 03:59:23;;;;;;;4.22;3.88;;;;;;;5.26;100.00;91983.09;2113260;28;20027;-83
2024/03/04 04:00:25;;;;;;;4.43;4.05;;;;;;;5.15;100.00;91983.31;2112196;28;20062;-82
2024/03/04 04:01:26;;;;;;;4.07;3.67;;;;;;;5.53;100.00;91981.03;2121310;27;20510;-82
2024/03/04 04:02:27;;;;;;;3.85;3.55;;;;;;;5.42;100.00;91985.06;2113360;28;20031;-81
2024/03/04 04:03:28;;;;;;;3.85;3.55;;;;;;;5.39;100.00;91981.31;2098058;28;20074;-81
2024/03/04 04:04:29;;;;;;;6.13;3.90;;;;;;;5.32;100.00;91983.38;2106421;28;20035;-81
2024/03/04 04:05:30;;;;;;;4.18;3.78;;;;;;;5.37;100.00;91996.13;2119561;27;20027;-82
2024/03/04 04:06:31;;;;;;;4.53;3.70;;;;;;;5.28;100.00;91988.75;2119994;27;20126;-81
2024/03/04 04:07:32;;;;;;;4.03;3.72;;;;;;;5.25;100.00;91992.19;2098129;28;20690;-82
2024/03/04 04:08:33;;;;;;;4.40;4.00;;;;;;;5.28;100.00;91997.44;2090096;28;20029;-81
2024/03/04 04:09:34;;;;;;;3.90;3.60;;;;;;;5.18;100.00;91993.09;2089875;28;20036;-81
2024/03/04 04:10:35;;;;;;;3.50;3.20;;;;;;;5.25;100.00;91989.56;2094103;28;20032;-82
2024/03/04 04:11:37;;;;;;;4.15;3.75;;;;;;;5.39;100.00;91997.19;2089724;28;20108;-81
2024/03/04 04:12:38;;;;;;;5.03;3.88;;;;;;;5.28;100.00;91996.69;2090284;28;20028;-82
2024/03/04 04:13:39;;;;;;;4.45;4.05;;;;;;;5.20;100.00;92001.38;2101914;28;20518;-82
2024/03/04 04:14:40;;;;;;;4.00;3.70;;;;;;;5.13;100.00;91998.84;2098264;28;20024;-82
2024/03/04 04:15:41;;;;;;;4.00;3.70;;;;;;;5.13;100.00;91996.19;2098195;28;20127;-82
2024/03/04 04:16:43;;;;;;;4.07;3.67;;;;;;;5.06;100.00;92001.66;2123303;27;20440;-80
2024/03/04 04:17:44;;;;;;;3.95;3.65;;;;;;;5.12;100.00;92001.91;2106575;28;20024;-81
2024/03/04 04:18:45;;;;;;;5.93;4.00;;;;;;;5.10;100.00;92007.63;2089972;28;20028;-82
2024/03/04 04:19:47;;;;;;;4.03;3.72;;;;;;;5.11;100.00;92000.44;2103125;28;20472;-82
2024/03/04 04:20:48;;;;;;;4.20;3.88;;;;;;;5.07;100.00;92005.78;2114628;28;20082;-83
2024/03/04 04:21:50;;;;;;;4.20;3.80;;;;;;;5.31;100.00;92003.78;2114692;28;20030;-82
2024/03/04 04:22:51;;;;;;;3.95;3.65;;;;;;;5.15;100.00;92004.50;2114516;28;20051;-82
2024/03/04 04:23:52;;;;;;;4.22;3.83;;;;;;;5.46;100.00;92012.22;2099359;28;20470;-82
2024/03/04 04:24:54;;;;;;;4.43;4.03;;;;;;;5.28;100.00;92013.31;2100366;28;20028;-82
2024/03/04 04:25:55;;;;;;;3.97;3.60;;;;;;;5.19;100.00;92010.47;2089867;28;20107;-83
2024/03/04 04:26:56;;;;;;;4.05;3.65;;;;;;;5.13;100.00;92014.00;2103267;28;20506;-82
2024/03/04 04:27:57;;;;;;;4.40;4.00;;;;;;;5.32;100.00;92018.56;2097835;28;20024;-83
2024/03/04 04:28:58;;;;;;;4.38;3.67;;;;;;;5.29;100.00;92009.50;2089638;28;20385;-82
2024/03/04 04:29:59;;;;;;;3.75;3.40;;;;;;;5.16;100.00;92018.50;2106090;28;20023;-82
2024/03/04 04:31:00;;;;;;;4.50;4.10;;;;;;;5.26;100.00;92014.88;2117484;27;20077;-82
2024/03/04 04:32:01;;;;;;;5.28;4.10;;;;;;;5.19;100.00;92020.34;2108034;28;20028;-81
2024/03/04 04:33:03;;;;;;;4.13;3.80;;;;;;;5.41;100.00;92023.31;2101483;28;20032;-84
2024/03/04 04:34:04;;;;;;;4.47;4.07;;;;;;;5.37;100.00;92017.34;2092773;28;20035;-83
2024/03/04 04:35:05;;;;;;;3.88;3.58;;;;;;;5.22;100.00;92024.78;2102814;28;20396;-83
2024/03/04 04:36:06;;;;;;;4.22;3.83;;;;;;;4.99;100.00;92028.25;2098841;28;20028;-81
2024/03/04 04:37:09;;;;;;;4.47;4.07;;;;;;;5.07;100.00;92031.53;2089531;28;20016;-82
2024/03/04 04:38:10;;;;;;;4.25;3.85;;;;;;;5.19;100.00;92029.03;2102155;28;20032;-81
2024/03/04 04:39:11;;;;;;;4.40;4.00;;;;;;;5.15;100.00;92028.34;2114766;28;20031;-81
2024/03/04 04:40:18;;;;;;;4.60;4.20;;;;;;;5.06;100.00;92036.09;2114744;28;20035;-81
2024/03/04 04:41:19;;;;;;;4.70;4.25;;;;;;;4.99;100.00;92036.22;2101420;28;20025;-82
2024/03/04 04:42:24;;;;;;;4.70;4.20;;;;;;;5.05;100.00;92040.63;2098556;28;20035;-82
2024/03/04 04:43:25;;;;;;;4.78;4.38;;;;;;;4.96;100.00;92031.72;2106623;28;20491;-81
2024/03/04 04:44:26;;;;;;;5.63;4.60;;;;;;;4.96;100.00;92035.13;2097857;28;20040;-83
2024/03/04 04:45:27;;;;;;;4.63;4.15;;;;;;;5.32;100.00;92037.09;2091088;28;20032;-82
2024/03/04 04:46:29;;;;;;;4.78;4.10;;;;;;;5.35;100.00;92041.56;2098070;28;20115;-82
2024/03/04 04:47:30;;;;;;;5.05;4.05;;;;;;;5.14;100.00;92050.69;2097898;28;20024;-80
2024/03/04 04:48:32;;;;;;;4.47;4.07;;;;;;;5.21;100.00;92044.50;2096173;28;20040;-80
2024/03/04 04:49:33;;;;;;;5.50;4.40;;;;;;;5.23;100.00;92050.91;2100089;28;20035;-81
2024/03/04 04:50:33;;;;;;;4.47;4.07;;;;;;;5.26;100.00;92049.31;2105585;28;20016;-81
2024/03/04 04:51:34;;;;;;;5.18;4.15;;;;;;;5.32;100.00;92046.97;2096564;28;20028;-81